Springfield, New Jersey
Current Conditions -  °F | °C
As of 4:35 PM on Saturday 22 Nov 2014 (Local Time) from KLDJ Reporting Station
Broken Clouds Broken Clouds  
Wind Chill: 42°   Ceiling: 4900
Heat Index: 46°   Visibility: 10mi
Dew Point: 20°   Wind: 8mph
Humidity: 36%   Direction: 260°W
Pressure: 30.3"   Gusts: NA
Location:  40.71°N, 74.31°W
Report Text: KLDJ 222135Z AUTO 26007KT 10SM BKN049 08/M06 A3030 RMK AO2 T00781065
Loading
Personal Weather Stations






























Interactive Weather Map New forecast layout! Learn more

10-Day Weather Forecast

Advertisements
Track Severe Weather on mobile